Time;durP1;ratioP1;P1;durP2;ratioP2;P2;SDS_P1;SDS_P2;PMS_P1;PMS_P2;Temp;Humidity;BMP_temperature;BMP_pressure;BME280_temperature;BME280_humidity;BME280_pressure;Samples;Min_cycle;Max_cycle;Signal;HPM_P1;HPM_P2
2022/10/04 00:00:27;;;;;;;;;44.33;35.67;;;;;13.80;70.31;101835.94;5057426;28;45482;-73
2022/10/04 00:03:01;;;;;;;;;38.67;34.00;;;;;13.75;70.04;101832.84;5057152;28;45561;-72
2022/10/04 00:05:29;;;;;;;;;38.33;34.00;;;;;13.65;70.31;101822.16;5068451;28;45348;-71
2022/10/04 00:08:01;;;;;;;;;44.33;36.67;;;;;12.16;69.63;101565.84;5036852;28;45329;-71
2022/10/04 00:10:32;;;;;;;;;44.33;38.00;;;;;13.73;69.88;101837.50;5031468;28;45578;-70
2022/10/04 00:13:14;;;;;;;;;44.67;36.67;;;;;13.51;69.58;101798.50;5036115;28;46362;-72
2022/10/04 00:15:40;;;;;;;;;48.33;39.00;;;;;13.68;69.55;101824.53;5035251;28;45850;-70
2022/10/04 00:18:11;;;;;;;;;45.67;39.67;;;;;13.82;69.42;101851.88;5037576;28;46597;-72
2022/10/04 00:20:54;;;;;;;;;40.33;34.33;;;;;13.80;69.76;101845.78;5037558;28;45418;-73
2022/10/04 00:23:23;;;;;;;;;44.00;37.33;;;;;13.79;69.72;101841.44;5035623;28;46859;-70
2022/10/04 00:25:59;;;;;;;;;42.33;36.33;;;;;13.76;69.82;101839.88;5036851;28;45284;-71
2022/10/04 00:28:24;;;;;;;;;38.67;35.00;;;;;13.75;69.79;101842.69;5036809;28;45305;-71
2022/10/04 00:31:07;;;;;;;;;44.67;36.00;;;;;13.67;69.67;101833.53;5036615;28;45187;-70
2022/10/04 00:33:54;;;;;;;;;44.67;38.00;;;;;13.74;69.39;101841.00;5030041;28;45594;-72
2022/10/04 00:36:22;;;;;;;;;44.33;38.33;;;;;13.74;69.47;101844.53;5036633;28;45356;-69
2022/10/04 00:39:06;;;;;;;;;49.00;39.67;;;;;13.72;69.66;101846.50;5036611;28;45552;-70
2022/10/04 00:41:46;;;;;;;;;50.33;39.00;;;;;13.72;69.76;101851.00;5029977;28;45429;-71
2022/10/04 00:44:26;;;;;;;;;41.33;35.00;;;;;13.71;69.75;101850.16;5036436;28;45653;-70
2022/10/04 00:46:54;;;;;;;;;46.00;37.67;;;;;13.69;69.47;101842.28;5036483;28;45547;-71
2022/10/04 00:49:25;;;;;;;;;46.00;38.33;;;;;13.53;69.71;101817.91;5035174;28;45575;-70
2022/10/04 00:51:58;;;;;;;;;47.00;37.33;;;;;13.65;69.78;101840.00;5036775;28;45222;-71
2022/10/04 00:54:30;;;;;;;;;47.33;38.33;;;;;13.59;69.94;101822.69;5034638;28;46961;-71
2022/10/04 00:57:16;;;;;;;;;40.67;35.33;;;;;13.62;69.77;101825.09;5036353;28;45348;-72
2022/10/04 00:59:49;;;;;;;;;45.00;38.00;;;;;13.63;69.79;101831.28;5036451;28;45508;-70
2022/10/04 01:02:27;;;;;;;;;46.00;37.67;;;;;13.58;70.21;101821.00;5034788;28;45317;-71
2022/10/04 01:05:01;;;;;;;;;47.67;38.67;;;;;13.43;70.09;101801.00;5038247;28;45751;-70
2022/10/04 01:08:08;;;;;;;;;43.00;36.67;;;;;13.20;70.51;101762.13;5035773;28;45307;-70
2022/10/04 01:10:44;;;;;;;;;45.00;37.33;;;;;13.56;70.29;101814.94;5012704;28;45604;-69
2022/10/04 01:13:18;;;;;;;;;37.67;33.33;;;;;13.50;70.00;101810.16;5036583;28;45317;-70
2022/10/04 01:15:59;;;;;;;;;48.67;39.33;;;;;13.53;70.19;101825.91;5035948;28;45758;-71
2022/10/04 01:18:24;;;;;;;;;46.33;39.00;;;;;13.52;69.81;101802.00;5050381;28;45345;-70
2022/10/04 01:21:17;;;;;;;;;44.67;37.33;;;;;13.49;69.88;101797.78;5036652;28;45479;-71
2022/10/04 01:23:48;;;;;;;;;46.00;38.67;;;;;13.49;70.01;101795.13;5032664;28;45356;-71
2022/10/04 01:26:28;;;;;;;;;47.67;39.67;;;;;13.46;69.79;101798.06;5052839;28;47761;-70
2022/10/04 01:28:54;;;;;;;;;50.33;39.33;;;;;13.43;70.03;101790.31;5041181;28;45353;-71
2022/10/04 01:31:20;;;;;;;;;46.67;37.33;;;;;13.39;70.66;101781.72;5047302;28;45236;-70
2022/10/04 01:33:46;;;;;;;;;42.67;35.00;;;;;13.14;69.88;101743.97;5047267;28;45535;-71
2022/10/04 01:36:11;;;;;;;;;45.33;38.00;;;;;13.26;70.27;101748.25;5045622;28;45538;-75
2022/10/04 01:38:37;;;;;;;;;47.00;36.33;;;;;13.36;70.26;101771.31;5039422;28;45381;-71
2022/10/04 01:41:06;;;;;;;;;40.33;33.67;;;;;13.44;70.37;101783.16;5039548;28;45364;-70
2022/10/04 01:43:37;;;;;;;;;48.33;37.67;;;;;13.34;70.04;101772.44;5050578;28;45329;-69
2022/10/04 01:46:15;;;;;;;;;45.33;36.33;;;;;13.39;70.15;101795.06;5051954;28;47601;-72
2022/10/04 01:48:44;;;;;;;;;41.33;35.33;;;;;12.67;70.42;101666.28;5039329;28;45479;-69
2022/10/04 01:51:53;;;;;;;;;41.67;35.67;;;;;13.25;71.01;101765.25;5041515;28;45440;-70
2022/10/04 01:54:29;;;;;;;;;46.00;37.33;;;;;13.07;71.29;101739.16;5032850;28;45573;-69
2022/10/04 01:57:22;;;;;;;;;41.67;33.33;;;;;13.19;71.02;101753.28;5047014;28;45436;-70
2022/10/04 01:59:55;;;;;;;;;40.67;34.00;;;;;13.25;71.12;101762.59;5038933;28;45156;-69
2022/10/04 02:02:35;;;;;;;;;44.67;35.33;;;;;13.23;71.17;101769.88;5039294;28;45414;-72
2022/10/04 02:05:04;;;;;;;;;41.00;36.00;;;;;12.78;71.07;101699.03;5047436;28;45376;-70
2022/10/04 02:07:32;;;;;;;;;43.33;36.33;;;;;13.23;70.79;101770.75;5037488;28;47204;-69
2022/10/04 02:10:09;;;;;;;;;43.33;36.33;;;;;13.18;70.94;101754.25;5042961;28;46617;-69
2022/10/04 02:12:37;;;;;;;;;44.67;36.00;;;;;13.17;70.46;101749.03;5039039;28;45458;-71
2022/10/04 02:15:08;;;;;;;;;42.33;33.67;;;;;13.15;71.28;101745.66;5039341;28;45275;-70
2022/10/04 02:17:41;;;;;;;;;39.33;32.00;;;;;12.95;72.03;101729.56;5046069;28;45593;-71
2022/10/04 02:20:15;;;;;;;;;41.67;35.33;;;;;12.92;71.68;101718.31;5032556;28;45545;-69
2022/10/04 02:22:42;;;;;;;;;42.00;36.33;;;;;13.05;71.83;101734.94;5046840;28;45467;-70
2022/10/04 02:25:09;;;;;;;;;46.67;38.33;;;;;13.03;72.61;101734.25;5039030;28;45393;-69
2022/10/04 02:27:35;;;;;;;;;39.67;33.00;;;;;13.03;72.02;101729.75;5045466;28;47538;-71
2022/10/04 02:30:08;;;;;;;;;38.67;35.00;;;;;13.00;72.51;101727.31;5038666;28;45393;-70
2022/10/04 02:35:19;;;;;;;;;38.67;33.00;;;;;12.92;72.40;101719.16;5033759;28;45445;-71
2022/10/04 02:37:48;;;;;;;;;42.00;35.33;;;;;12.95;72.13;101724.22;5037708;28;46715;-71
2022/10/04 02:40:19;;;;;;;;;41.00;35.67;;;;;12.92;72.37;101716.50;5053893;28;45473;-69
2022/10/04 02:43:07;;;;;;;;;42.00;32.33;;;;;12.90;72.33;101721.13;5053154;28;45508;-71
2022/10/04 02:45:49;;;;;;;;;36.00;30.00;;;;;12.79;72.30;101699.88;5046738;28;45225;-70
2022/10/04 02:48:30;;;;;;;;;36.00;33.00;;;;;12.72;72.04;101688.06;5037964;28;45342;-71
2022/10/04 02:51:05;;;;;;;;;41.33;34.33;;;;;12.16;72.55;101604.00;5037912;28;45549;-71
2022/10/04 02:53:49;;;;;;;;;37.67;33.67;;;;;11.67;72.48;101535.44;5038197;28;45457;-71
2022/10/04 02:56:16;;;;;;;;;42.00;34.67;;;;;12.82;73.08;101722.78;5038601;28;45288;-70
2022/10/04 02:58:42;;;;;;;;;41.00;35.33;;;;;12.63;72.68;101691.53;5036422;28;47997;-70
2022/10/04 03:01:16;;;;;;;;;44.00;33.33;;;;;12.77;72.54;101709.81;5037961;28;46693;-70
2022/10/04 03:03:46;;;;;;;;;42.33;35.67;;;;;12.74;72.76;101710.94;5037908;28;45585;-70
2022/10/04 03:06:16;;;;;;;;;44.67;36.00;;;;;12.60;72.88;101689.13;5038032;28;45320;-70
2022/10/04 03:08:42;;;;;;;;;46.00;35.00;;;;;12.76;72.98;101716.16;5037338;28;46878;-70
2022/10/04 03:11:08;;;;;;;;;41.00;36.00;;;;;12.78;72.88;101716.84;5044997;28;46223;-70
2022/10/04 03:13:36;;;;;;;;;42.67;36.00;;;;;12.71;73.36;101711.22;5047640;28;45513;-70
2022/10/04 03:16:02;;;;;;;;;43.67;35.67;;;;;12.50;73.27;101675.75;5037618;28;45245;-70
2022/10/04 03:18:30;;;;;;;;;43.00;34.00;;;;;12.35;72.91;101653.91;5038026;28;47025;-69
2022/10/04 03:20:56;;;;;;;;;43.33;36.00;;;;;12.61;73.15;101704.13;5044083;28;45877;-71
2022/10/04 03:23:21;;;;;;;;;41.00;34.00;;;;;12.66;72.88;101701.94;5037665;28;45312;-70
2022/10/04 03:25:57;;;;;;;;;35.00;32.00;;;;;12.67;73.15;101699.13;5045185;28;45622;-70
2022/10/04 03:28:23;;;;;;;;;40.00;33.33;;;;;12.60;72.79;101691.78;5034733;28;46847;-71
2022/10/04 03:30:49;;;;;;;;;44.33;35.67;;;;;12.66;72.54;101689.44;5034097;28;45589;-69
2022/10/04 03:33:18;;;;;;;;;36.67;32.00;;;;;12.21;72.60;101606.28;5037636;28;45387;-70
2022/10/04 03:35:46;;;;;;;;;43.00;36.00;;;;;12.67;72.44;101680.47;5044706;28;45628;-70
2022/10/04 03:38:13;;;;;;;;;38.67;34.67;;;;;12.53;72.11;101653.28;5043622;28;47531;-69
2022/10/04 03:40:44;;;;;;;;;42.00;35.00;;;;;12.67;72.06;101676.94;5037305;28;46203;-70
2022/10/04 03:43:12;;;;;;;;;35.00;29.67;;;;;12.72;71.74;101680.03;5037089;28;45447;-71
2022/10/04 03:45:40;;;;;;;;;46.33;36.33;;;;;12.63;71.56;101659.53;5037736;28;45261;-69
2022/10/04 03:48:12;;;;;;;;;42.67;33.33;;;;;12.70;71.37;101672.19;5036176;28;46755;-71
2022/10/04 03:50:45;;;;;;;;;36.00;32.00;;;;;12.64;71.32;101661.22;5036764;28;45315;-69
2022/10/04 03:53:16;;;;;;;;;36.67;32.67;;;;;12.52;71.49;101646.28;5037232;28;45742;-69
2022/10/04 03:55:43;;;;;;;;;40.00;35.00;;;;;12.60;71.51;101655.28;5037389;28;45462;-68
2022/10/04 03:58:11;;;;;;;;;45.67;37.00;;;;;12.68;71.58;101675.97;5036673;28;45234;-69
2022/10/04 04:00:55;;;;;;;;;40.67;34.33;;;;;12.67;71.47;101676.94;5051898;28;45428;-71
2022/10/04 04:03:21;;;;;;;;;39.33;34.00;;;;;12.67;71.35;101675.13;5028963;28;45541;-71
2022/10/04 04:05:56;;;;;;;;;34.67;30.33;;;;;12.24;71.27;101606.03;5086229;27;45397;-69
2022/10/04 04:08:33;;;;;;;;;37.00;33.33;;;;;12.64;71.11;101674.56;5056134;28;46696;-70
2022/10/04 04:11:03;;;;;;;;;36.33;33.33;;;;;12.57;71.67;101660.03;5056974;27;45341;-71
2022/10/04 04:13:48;;;;;;;;;38.00;34.67;;;;;12.56;72.06;101669.03;5057002;28;45269;-71
2022/10/04 04:16:14;;;;;;;;;41.33;35.33;;;;;12.51;71.55;101660.59;5072381;28;45530;-72
2022/10/04 04:18:43;;;;;;;;;33.00;31.33;;;;;12.58;71.91;101685.75;5056165;28;45566;-70
2022/10/04 04:21:14;;;;;;;;;41.67;33.00;;;;;12.57;72.16;101692.06;5055899;28;45435;-70
2022/10/04 04:23:47;;;;;;;;;41.33;33.00;;;;;12.54;72.02;101693.16;5071682;27;45280;-69
2022/10/04 04:26:22;;;;;;;;;42.33;34.33;;;;;12.40;72.44;101682.84;5057051;28;45426;-70
2022/10/04 04:28:52;;;;;;;;;41.67;36.00;;;;;12.40;72.59;101681.03;5056376;28;45528;-69
2022/10/04 04:31:26;;;;;;;;;40.00;34.67;;;;;12.50;72.17;101702.41;5056161;28;46351;-70
2022/10/04 04:34:00;;;;;;;;;26.00;25.33;;;;;12.33;72.18;101684.38;5056782;28;45267;-70
2022/10/04 04:36:28;;;;;;;;;43.00;34.33;;;;;12.46;72.37;101701.00;5056609;28;45500;-70
2022/10/04 04:41:49;;;;;;;;;38.67;32.33;;;;;12.47;72.16;101706.19;5046872;28;45262;-70
2022/10/04 04:44:17;;;;;;;;;43.33;36.00;;;;;12.48;71.88;101707.03;5056201;28;45200;-69
2022/10/04 04:46:44;;;;;;;;;35.33;32.00;;;;;12.08;72.12;101627.84;5071944;28;45257;-71
2022/10/04 04:49:11;;;;;;;;;38.00;34.00;;;;;12.36;72.17;101684.09;5056166;27;46851;-75
2022/10/04 04:51:39;;;;;;;;;36.33;32.33;;;;;12.45;71.80;101699.31;5056079;28;45393;-71
2022/10/04 04:54:06;;;;;;;;;37.33;32.33;;;;;12.33;72.03;101685.22;5056128;28;45177;-71
2022/10/04 04:56:32;;;;;;;;;36.00;31.67;;;;;12.32;71.56;101683.53;5071822;28;46691;-70
2022/10/04 04:59:02;;;;;;;;;38.33;33.00;;;;;12.29;72.31;101688.28;5056436;28;46071;-70
2022/10/04 05:01:34;;;;;;;;;39.33;33.00;;;;;12.35;72.15;101693.91;5055707;28;45459;-71
2022/10/04 05:04:11;;;;;;;;;36.00;32.67;;;;;12.34;72.47;101697.56;5054403;28;45206;-70
2022/10/04 05:06:39;;;;;;;;;35.67;31.00;;;;;12.37;72.22;101705.28;5038147;28;45467;-70
2022/10/04 05:09:05;;;;;;;;;38.00;32.33;;;;;11.80;72.13;101608.00;5035754;28;46176;-70
2022/10/04 05:11:36;;;;;;;;;35.33;30.67;;;;;12.34;72.40;101700.22;5035900;28;45352;-71
2022/10/04 05:14:11;;;;;;;;;33.67;30.00;;;;;12.30;72.52;101693.47;5035170;28;45429;-70
2022/10/04 05:16:41;;;;;;;;;38.67;33.33;;;;;12.01;72.47;101649.78;5035925;28;45523;-70
2022/10/04 05:19:14;;;;;;;;;30.00;29.00;;;;;11.51;71.73;101569.69;5027030;28;47486;-70
2022/10/04 05:21:45;;;;;;;;;35.33;30.00;;;;;12.32;72.13;101710.19;5025962;28;45692;-72
2022/10/04 05:24:20;;;;;;;;;37.67;32.33;;;;;12.27;72.27;101708.91;5036296;28;45241;-70
2022/10/04 05:26:53;;;;;;;;;32.67;29.00;;;;;12.34;72.15;101704.72;5027869;28;45548;-71
2022/10/04 05:29:27;;;;;;;;;35.00;28.67;;;;;12.08;72.43;101666.97;5034854;28;46104;-71
2022/10/04 05:32:49;;;;;;;;;34.67;30.33;;;;;12.30;72.07;101700.63;5028079;28;45400;-71
2022/10/04 05:35:17;;;;;;;;;34.67;30.33;;;;;12.17;72.06;101674.16;4992191;28;45465;-70
2022/10/04 05:37:54;;;;;;;;;36.33;31.00;;;;;12.28;71.81;101697.25;5033408;28;45620;-70
2022/10/04 05:40:30;;;;;;;;;39.33;33.00;;;;;12.00;72.21;101650.78;5035472;28;45709;-70
2022/10/04 05:42:57;;;;;;;;;35.33;32.33;;;;;11.56;72.05;101576.28;5035766;28;45462;-72
2022/10/04 05:45:26;;;;;;;;;37.67;32.33;;;;;12.25;72.14;101694.84;5033160;28;45497;-72
2022/10/04 05:47:54;;;;;;;;;38.67;32.67;;;;;12.15;72.21;101678.78;5032773;28;45376;-71
2022/10/04 05:50:22;;;;;;;;;32.00;30.33;;;;;12.25;72.11;101697.53;5035071;28;46151;-70
2022/10/04 05:52:50;;;;;;;;;38.67;34.00;;;;;12.25;72.09;101698.38;5035648;28;45442;-72
2022/10/04 05:55:28;;;;;;;;;33.00;29.67;;;;;11.83;71.78;101633.59;5034908;28;45397;-71
2022/10/04 05:58:18;;;;;;;;;42.00;34.33;;;;;12.23;71.91;101695.00;5019580;28;45522;-71
2022/10/04 06:00:49;;;;;;;;;36.00;31.33;;;;;12.20;72.02;101692.56;5035101;28;45870;-70
2022/10/04 06:03:39;;;;;;;;;32.67;30.67;;;;;12.21;71.98;101688.06;5036551;28;45377;-71
2022/10/04 06:06:18;;;;;;;;;37.67;33.33;;;;;12.11;71.59;101674.69;5047087;28;45529;-69
2022/10/04 06:09:09;;;;;;;;;39.00;34.67;;;;;11.71;71.12;101598.13;5055868;28;45257;-71
2022/10/04 06:11:54;;;;;;;;;43.33;33.33;;;;;12.25;71.43;101693.03;5049703;28;47157;-73
2022/10/04 06:14:34;;;;;;;;;30.33;29.33;;;;;12.23;71.41;101684.31;5053510;28;45524;-72
2022/10/04 06:17:37;;;;;;;;;37.00;32.33;;;;;12.33;71.46;101698.53;5077108;27;45537;-72
2022/10/04 06:20:05;;;;;;;;;36.67;33.33;;;;;11.79;71.56;101600.16;5058779;28;45379;-75
2022/10/04 06:22:32;;;;;;;;;35.33;30.67;;;;;12.33;70.77;101685.22;5060469;28;45446;-71
2022/10/04 06:25:23;;;;;;;;;35.67;33.00;;;;;12.30;70.59;101685.47;5056919;28;45530;-72
2022/10/04 06:28:14;;;;;;;;;34.00;32.00;;;;;12.41;70.57;101698.75;5057307;28;45364;-73
2022/10/04 06:30:52;;;;;;;;;35.33;32.67;;;;;12.23;70.93;101662.16;5048259;28;46175;-71
2022/10/04 06:33:49;;;;;;;;;40.67;35.67;;;;;12.54;70.04;101703.00;5057375;28;46496;-73
2022/10/04 06:36:44;;;;;;;;;39.00;33.00;;;;;12.43;69.86;101675.44;5054725;28;45348;-71
2022/10/04 06:39:37;;;;;;;;;40.33;32.33;;;;;12.69;69.55;101707.00;5050946;28;45454;-73
2022/10/04 06:42:32;;;;;;;;;38.67;33.00;;;;;12.71;69.08;101710.38;5058553;28;45182;-73
2022/10/04 06:45:10;;;;;;;;;41.33;32.33;;;;;12.75;68.90;101717.13;5057520;28;45260;-71
2022/10/04 06:47:47;;;;;;;;;42.00;34.00;;;;;12.79;69.00;101707.88;5058256;28;45466;-69
2022/10/04 06:50:21;;;;;;;;;38.33;32.33;;;;;12.88;68.84;101706.22;5050521;28;45542;-72
2022/10/04 06:52:58;;;;;;;;;36.67;32.00;;;;;12.94;68.51;101706.53;5058934;28;45322;-74
2022/10/04 06:55:45;;;;;;;;;35.00;32.00;;;;;12.89;68.81;101694.56;5074253;28;47666;-71
2022/10/04 06:58:29;;;;;;;;;38.67;32.67;;;;;13.10;68.46;101708.69;5058111;28;45421;-72
2022/10/04 07:01:21;;;;;;;;;42.67;35.67;;;;;13.23;68.26;101716.47;5058740;28;45446;-73
2022/10/04 07:03:54;;;;;;;;;40.67;33.00;;;;;13.30;68.02;101709.59;5058441;28;45548;-73
2022/10/04 07:06:27;;;;;;;;;38.33;32.33;;;;;13.44;67.70;101722.56;5048614;28;45868;-73
2022/10/04 07:09:01;;;;;;;;;34.33;30.33;;;;;13.53;67.88;101712.84;5057870;28;45340;-71
2022/10/04 07:11:36;;;;;;;;;37.67;34.33;;;;;13.70;67.72;101712.16;5067141;28;45503;-73
2022/10/04 07:14:01;;;;;;;;;42.67;33.67;;;;;13.99;67.00;101709.47;5056730;28;45525;-72
2022/10/04 07:16:47;;;;;;;;;44.00;35.33;;;;;14.51;65.96;101700.09;5057464;28;45710;-76
2022/10/04 07:19:18;;;;;;;;;42.00;37.67;;;;;15.26;64.00;101708.88;5055295;28;45423;-74
2022/10/04 07:22:07;;;;;;;;;38.00;33.00;;;;;16.05;62.21;101718.88;5053065;28;45723;-72
2022/10/04 07:24:52;;;;;;;;;41.33;35.67;;;;;17.01;59.22;101708.84;5076877;27;45455;-73
2022/10/04 07:27:26;;;;;;;;;36.33;32.67;;;;;17.70;56.80;101702.34;5056059;28;45751;-72
2022/10/04 07:29:55;;;;;;;;;43.33;36.00;;;;;18.29;54.82;101713.75;5056333;28;45427;-72
2022/10/04 07:32:24;;;;;;;;;36.67;32.00;;;;;18.76;53.11;101708.41;5057571;28;45358;-73
2022/10/04 07:34:55;;;;;;;;;34.67;30.00;;;;;19.32;52.31;101711.84;5056031;28;45629;-75
2022/10/04 07:37:24;;;;;;;;;39.33;30.67;;;;;19.23;50.95;101623.97;5056740;28;46301;-73
2022/10/04 07:39:55;;;;;;;;;35.33;32.67;;;;;20.24;49.49;101718.09;5057252;28;45437;-73
2022/10/04 07:42:31;;;;;;;;;32.00;28.67;;;;;20.31;48.28;101699.28;5057758;28;45407;-72
2022/10/04 07:44:59;;;;;;;;;36.00;32.00;;;;;20.99;48.43;101724.34;5057504;28;45494;-76
2022/10/04 07:47:26;;;;;;;;;32.00;30.00;;;;;21.57;46.78;101726.13;5057516;28;45308;-71
2022/10/04 07:49:53;;;;;;;;;29.67;27.00;;;;;21.41;45.46;101632.50;5062168;28;45357;-72
2022/10/04 07:52:31;;;;;;;;;33.67;30.00;;;;;22.09;45.67;101723.09;5072187;27;45475;-77
2022/10/04 07:55:15;;;;;;;;;40.33;33.33;;;;;22.33;44.68;101710.97;5056299;28;45596;-71
2022/10/04 07:58:08;;;;;;;;;35.00;30.00;;;;;21.91;44.39;101624.41;5057243;28;45538;-78
2022/10/04 08:00:55;;;;;;;;;38.67;31.67;;;;;22.24;43.53;101635.50;5057183;28;45268;-71
2022/10/04 08:03:28;;;;;;;;;33.67;28.67;;;;;23.11;43.13;101708.94;5057862;28;45528;-73
2022/10/04 08:06:10;;;;;;;;;33.33;31.67;;;;;23.63;41.77;101702.84;5061888;28;45624;-72
2022/10/04 08:08:54;;;;;;;;;34.67;31.67;;;;;23.79;40.32;101624.72;5051507;28;46811;-71
2022/10/04 08:11:48;;;;;;;;;33.67;31.67;;;;;24.70;39.96;101703.63;5057187;28;45368;-78
2022/10/04 08:14:16;;;;;;;;;31.33;29.00;;;;;24.92;39.21;101699.56;5052401;28;45345;-76
2022/10/04 08:16:53;;;;;;;;;27.67;24.33;;;;;24.87;38.91;101694.75;5056320;28;45576;-72
2022/10/04 08:19:35;;;;;;;;;36.33;33.33;;;;;24.59;38.65;101686.06;5060639;28;46283;-72
2022/10/04 08:22:21;;;;;;;;;38.33;32.00;;;;;24.26;39.44;101672.53;5065037;28;45506;-73
2022/10/04 08:24:58;;;;;;;;;38.33;31.67;;;;;24.54;38.68;101681.28;5057474;28;45281;-71
2022/10/04 08:27:41;;;;;;;;;34.67;29.67;;;;;24.33;39.03;101688.84;5063193;28;45263;-71
2022/10/04 08:30:39;;;;;;;;;33.33;29.33;;;;;24.11;40.07;101693.66;5065994;28;45300;-71
2022/10/04 08:33:16;;;;;;;;;32.00;31.00;;;;;23.87;39.59;101695.13;5075874;28;45236;-71
2022/10/04 08:36:02;;;;;;;;;31.00;30.00;;;;;23.37;40.90;101695.44;5069558;28;45446;-72
2022/10/04 08:38:36;;;;;;;;;35.00;32.33;;;;;23.03;42.04;101707.25;5068256;28;45540;-71
2022/10/04 08:41:27;;;;;;;;;38.33;32.33;;;;;21.22;41.83;101484.38;5062765;28;45619;-75
2022/10/04 08:44:06;;;;;;;;;39.33;33.00;;;;;22.27;43.04;101721.78;5066726;28;45500;-71
2022/10/04 08:46:57;;;;;;;;;38.00;34.67;;;;;22.20;43.48;101732.53;5062441;28;45479;-70
2022/10/04 08:49:46;;;;;;;;;28.33;26.00;;;;;22.21;43.40;101711.72;5054311;28;45615;-75
2022/10/04 08:52:37;;;;;;;;;33.67;29.67;;;;;22.44;43.21;101739.41;5055587;28;49398;-73
2022/10/04 08:55:45;;;;;;;;;34.33;30.33;;;;;22.35;43.47;101727.88;5061056;28;47025;-73
2022/10/04 08:58:35;;;;;;;;;37.33;33.67;;;;;22.57;43.47;101727.81;5063821;28;45550;-77
2022/10/04 09:01:25;;;;;;;;;36.33;32.00;;;;;22.71;42.91;101735.81;5056705;28;45281;-73
2022/10/04 09:04:39;;;;;;;;;35.33;31.67;;;;;22.65;42.65;101722.25;5059513;28;45896;-75
2022/10/04 09:07:37;;;;;;;;;30.67;29.67;;;;;22.62;43.01;101733.47;5056603;28;45612;-73
2022/10/04 09:10:12;;;;;;;;;35.67;31.67;;;;;22.72;42.77;101736.66;5069585;28;45343;-74
2022/10/04 09:12:43;;;;;;;;;29.33;29.33;;;;;22.92;42.20;101732.22;5066949;28;45693;-73
2022/10/04 09:15:33;;;;;;;;;42.67;35.00;;;;;22.94;42.55;101737.44;5057638;28;45557;-72
2022/10/04 09:18:36;;;;;;;;;30.67;29.00;;;;;23.70;41.24;101732.72;5063906;28;45435;-76
2022/10/04 09:21:14;;;;;;;;;40.00;34.00;;;;;24.64;39.15;101734.38;5068300;28;45423;-72
2022/10/04 09:24:03;;;;;;;;;45.00;35.33;;;;;25.60;37.34;101728.94;5065086;28;45445;-72
2022/10/04 09:26:38;;;;;;;;;38.67;33.67;;;;;26.51;36.02;101734.75;5046808;28;45657;-71
2022/10/04 09:29:22;;;;;;;;;40.33;34.00;;;;;26.95;34.34;101740.97;5060720;28;45305;-70
2022/10/04 09:32:13;;;;;;;;;44.33;37.33;;;;;26.98;34.25;101730.44;5056948;28;45547;-73
2022/10/04 09:34:57;;;;;;;;;44.33;38.33;;;;;26.95;34.80;101741.81;5029278;28;45634;-72
2022/10/04 09:38:19;;;;;;;;;41.67;34.67;;;;;26.59;34.56;101733.63;5058046;28;46053;-73
2022/10/04 09:40:44;;;;;;;;;43.33;37.00;;;;;26.11;36.11;101723.34;5019014;28;46966;-71
2022/10/04 09:43:34;;;;;;;;;47.00;39.00;;;;;25.65;36.16;101710.91;5071366;28;45448;-71
2022/10/04 09:46:20;;;;;;;;;43.33;36.33;;;;;24.84;37.53;101683.50;5065980;28;45582;-73
2022/10/04 09:49:07;;;;;;;;;40.00;35.00;;;;;24.21;39.14;101707.63;5045602;28;45775;-72
2022/10/04 09:52:00;;;;;;;;;46.00;37.67;;;;;23.27;40.35;101696.88;5069726;28;45553;-73
2022/10/04 09:54:50;;;;;;;;;45.00;37.00;;;;;22.64;41.86;101707.84;5063527;28;45491;-73
2022/10/04 09:57:26;;;;;;;;;48.67;42.00;;;;;22.02;43.30;101711.31;5068169;28;45325;-73
2022/10/04 10:00:00;;;;;;;;;47.00;39.00;;;;;21.46;44.45;101713.94;5058922;28;47751;-72
2022/10/04 10:02:40;;;;;;;;;50.33;43.00;;;;;20.88;45.66;101723.81;5069152;28;45447;-74
2022/10/04 10:05:21;;;;;;;;;50.67;41.67;;;;;20.25;47.16;101718.94;5048139;28;45419;-73
2022/10/04 10:07:59;;;;;;;;;46.67;39.33;;;;;19.69;48.40;101708.44;5036809;28;45541;-72
2022/10/04 10:14:14;;;;;;;;;53.33;41.00;;;;;19.18;50.51;101714.47;5026601;28;45640;-74
2022/10/04 10:17:02;;;;;;;;;48.00;41.67;;;;;18.80;51.18;101709.75;5008465;28;45395;-73
2022/10/04 10:20:17;;;;;;;;;53.67;43.00;;;;;18.17;52.96;101689.00;5029961;28;45526;-74
2022/10/04 10:23:16;;;;;;;;;54.00;44.00;;;;;17.97;53.75;101703.00;5037905;28;46131;-81
2022/10/04 10:26:21;;;;;;;;;51.33;41.67;;;;;17.77;54.86;101697.94;5037253;28;45585;-72
2022/10/04 10:29:12;;;;;;;;;50.67;42.67;;;;;17.58;55.50;101692.88;5039916;28;45479;-73
2022/10/04 10:31:58;;;;;;;;;45.67;38.67;;;;;17.31;56.30;101692.16;5041052;28;45254;-72
2022/10/04 10:34:54;;;;;;;;;42.33;34.33;;;;;17.16;56.83;101690.28;5036890;28;46516;-72
2022/10/04 10:37:29;;;;;;;;;51.33;43.67;;;;;16.86;58.51;101681.78;5031029;28;45231;-72
2022/10/04 10:40:15;;;;;;;;;47.33;38.00;;;;;16.62;58.72;101644.91;5038481;28;45604;-74
2022/10/04 10:42:59;;;;;;;;;54.67;42.67;;;;;16.70;59.13;101677.19;5037764;28;45174;-73
2022/10/04 10:45:45;;;;;;;;;49.67;42.33;;;;;16.54;59.76;101670.88;5035847;28;47611;-73
2022/10/04 10:48:13;;;;;;;;;43.67;36.00;;;;;16.55;59.99;101668.03;5028845;28;45376;-75
2022/10/04 10:51:02;;;;;;;;;51.33;43.67;;;;;16.45;60.23;101678.03;5038283;28;45350;-72
2022/10/04 10:54:04;;;;;;;;;51.33;43.33;;;;;16.38;60.73;101676.97;5036649;28;45354;-74
2022/10/04 10:56:42;;;;;;;;;54.67;43.00;;;;;16.07;61.43;101664.06;5029851;28;48651;-73
2022/10/04 10:59:49;;;;;;;;;55.00;43.67;;;;;16.13;61.45;101668.78;5037813;28;45538;-74
2022/10/04 11:02:40;;;;;;;;;46.67;39.67;;;;;16.08;62.16;101671.09;5043642;28;45526;-72
2022/10/04 11:05:24;;;;;;;;;48.33;42.00;;;;;16.02;62.26;101674.44;5031926;28;45341;-71
2022/10/04 11:07:54;;;;;;;;;46.33;38.33;;;;;16.05;62.35;101670.59;5038422;28;45531;-71
2022/10/04 11:10:37;;;;;;;;;44.67;37.00;;;;;16.12;62.46;101667.09;5036846;28;46756;-73
2022/10/04 11:13:20;;;;;;;;;46.33;37.67;;;;;16.30;62.08;101666.22;5041006;28;45389;-74
2022/10/04 11:16:22;;;;;;;;;45.33;37.67;;;;;16.36;61.83;101662.88;5038990;28;45241;-72
2022/10/04 11:19:15;;;;;;;;;45.67;37.00;;;;;16.38;61.96;101671.63;5036548;28;45849;-72
2022/10/04 11:22:18;;;;;;;;;39.33;34.33;;;;;16.42;62.02;101675.69;5045572;28;45375;-74
2022/10/04 11:25:17;;;;;;;;;43.00;38.67;;;;;16.57;62.00;101687.50;5048908;28;45721;-72
2022/10/04 11:28:12;;;;;;;;;35.00;32.67;;;;;16.68;61.74;101673.81;5037661;28;45415;-73
2022/10/04 11:31:11;;;;;;;;;34.00;31.00;;;;;16.81;61.51;101673.34;5016048;28;45771;-73
2022/10/04 11:34:01;;;;;;;;;35.00;32.67;;;;;16.31;61.59;101576.66;5028778;28;45431;-71
2022/10/04 11:36:52;;;;;;;;;25.67;25.33;;;;;16.80;60.99;101649.34;5036870;28;45293;-72
2022/10/04 11:39:47;;;;;;;;;29.33;26.67;;;;;17.11;61.02;101685.41;5037063;28;45293;-71
2022/10/04 11:42:36;;;;;;;;;24.00;23.00;;;;;17.21;60.32;101685.22;5008831;28;46402;-72
2022/10/04 11:45:41;;;;;;;;;21.00;20.00;;;;;17.31;60.01;101685.94;5037511;28;45476;-71
2022/10/04 11:48:25;;;;;;;;;33.67;30.33;;;;;17.36;60.29;101688.13;5015771;28;45317;-71
2022/10/04 11:51:09;;;;;;;;;25.33;22.33;;;;;17.43;60.19;101689.16;5030698;28;45277;-71
2022/10/04 11:53:52;;;;;;;;;27.33;23.00;;;;;16.99;59.91;101606.94;5036657;28;45487;-72
2022/10/04 11:56:20;;;;;;;;;20.00;19.33;;;;;17.03;59.80;101607.47;5043883;28;45464;-73
2022/10/04 11:59:08;;;;;;;;;25.67;22.00;;;;;17.52;59.67;101685.47;5040878;28;47571;-71
2022/10/04 12:01:58;;;;;;;;;18.67;18.00;;;;;17.57;59.87;101675.88;5035853;28;45475;-70
2022/10/04 12:04:41;;;;;;;;;27.33;22.67;;;;;17.63;59.88;101669.88;5046791;28;45624;-71
2022/10/04 12:07:25;;;;;;;;;21.00;20.67;;;;;17.68;59.73;101668.53;5043913;28;45494;-70
2022/10/04 12:10:22;;;;;;;;;22.00;19.00;;;;;17.73;59.87;101676.94;5061699;28;45478;-71